sensor_id;sensor_type;location;lat;lon;timestamp;P1;durP1;ratioP1;P2;durP2;ratioP2
21258;SDS011;10787;53.364;-1.480;2022-10-30T00:00:25;20.02;;;5.13;;
21258;SDS011;10787;53.364;-1.480;2022-10-30T00:02:51;21.10;;;4.82;;
21258;SDS011;10787;53.364;-1.480;2022-10-30T00:05:17;19.00;;;5.10;;
21258;SDS011;10787;53.364;-1.480;2022-10-30T00:07:45;16.70;;;4.75;;
21258;SDS011;10787;53.364;-1.480;2022-10-30T00:10:11;20.92;;;5.00;;
21258;SDS011;10787;53.364;-1.480;2022-10-30T00:12:38;19.75;;;4.85;;
21258;SDS011;10787;53.364;-1.480;2022-10-30T00:15:04;21.27;;;4.75;;
21258;SDS011;10787;53.364;-1.480;2022-10-30T00:17:30;23.55;;;4.72;;
21258;SDS011;10787;53.364;-1.480;2022-10-30T00:19:56;27.17;;;5.18;;
21258;SDS011;10787;53.364;-1.480;2022-10-30T00:22:22;23.47;;;4.93;;
21258;SDS011;10787;53.364;-1.480;2022-10-30T00:24:48;20.63;;;5.20;;
21258;SDS011;10787;53.364;-1.480;2022-10-30T00:27:14;20.73;;;4.50;;
21258;SDS011;10787;53.364;-1.480;2022-10-30T00:29:40;22.80;;;4.93;;
21258;SDS011;10787;53.364;-1.480;2022-10-30T00:32:06;22.10;;;4.73;;
21258;SDS011;10787;53.364;-1.480;2022-10-30T00:34:32;16.25;;;4.57;;
21258;SDS011;10787;53.364;-1.480;2022-10-30T00:36:58;21.55;;;4.57;;
21258;SDS011;10787;53.364;-1.480;2022-10-30T00:39:44;16.23;;;4.20;;
21258;SDS011;10787;53.364;-1.480;2022-10-30T00:42:12;24.90;;;4.50;;
21258;SDS011;10787;53.364;-1.480;2022-10-30T00:47:18;19.55;;;4.55;;
21258;SDS011;10787;53.364;-1.480;2022-10-30T00:49:52;22.20;;;5.45;;
21258;SDS011;10787;53.364;-1.480;2022-10-30T00:52:23;23.67;;;4.95;;
21258;SDS011;10787;53.364;-1.480;2022-10-30T00:54:53;19.53;;;4.87;;
21258;SDS011;10787;53.364;-1.480;2022-10-30T00:57:21;20.83;;;4.80;;
21258;SDS011;10787;53.364;-1.480;2022-10-30T00:59:49;18.77;;;4.27;;
21258;SDS011;10787;53.364;-1.480;2022-10-30T01:02:16;19.73;;;5.30;;
21258;SDS011;10787;53.364;-1.480;2022-10-30T01:04:44;20.25;;;4.53;;
21258;SDS011;10787;53.364;-1.480;2022-10-30T01:07:12;25.15;;;4.85;;
21258;SDS011;10787;53.364;-1.480;2022-10-30T01:09:40;21.83;;;5.13;;
21258;SDS011;10787;53.364;-1.480;2022-10-30T01:12:07;18.40;;;5.13;;
21258;SDS011;10787;53.364;-1.480;2022-10-30T01:14:35;21.60;;;5.20;;
21258;SDS011;10787;53.364;-1.480;2022-10-30T01:17:15;20.37;;;4.47;;
21258;SDS011;10787;53.364;-1.480;2022-10-30T01:22:51;17.43;;;4.73;;
21258;SDS011;10787;53.364;-1.480;2022-10-30T01:26:21;16.63;;;4.47;;
21258;SDS011;10787;53.364;-1.480;2022-10-30T01:37:02;17.27;;;4.43;;
21258;SDS011;10787;53.364;-1.480;2022-10-30T01:39:37;21.00;;;5.13;;
21258;SDS011;10787;53.364;-1.480;2022-10-30T01:47:56;17.77;;;4.30;;
21258;SDS011;10787;53.364;-1.480;2022-10-30T01:53:32;20.37;;;4.20;;
21258;SDS011;10787;53.364;-1.480;2022-10-30T01:59:05;23.07;;;4.67;;
21258;SDS011;10787;53.364;-1.480;2022-10-30T02:01:35;17.15;;;4.18;;
21258;SDS011;10787;53.364;-1.480;2022-10-30T02:04:02;18.40;;;4.57;;
21258;SDS011;10787;53.364;-1.480;2022-10-30T02:06:28;20.93;;;4.47;;
21258;SDS011;10787;53.364;-1.480;2022-10-30T02:08:54;18.23;;;3.90;;
21258;SDS011;10787;53.364;-1.480;2022-10-30T02:11:21;19.80;;;4.05;;
21258;SDS011;10787;53.364;-1.480;2022-10-30T02:13:49;17.43;;;4.47;;
21258;SDS011;10787;53.364;-1.480;2022-10-30T02:16:18;18.60;;;3.90;;
21258;SDS011;10787;53.364;-1.480;2022-10-30T02:18:44;17.53;;;4.33;;
21258;SDS011;10787;53.364;-1.480;2022-10-30T02:21:10;16.90;;;4.80;;
21258;SDS011;10787;53.364;-1.480;2022-10-30T02:23:36;14.00;;;4.13;;
21258;SDS011;10787;53.364;-1.480;2022-10-30T02:26:02;18.10;;;4.03;;
21258;SDS011;10787;53.364;-1.480;2022-10-30T02:28:28;18.47;;;4.27;;
21258;SDS011;10787;53.364;-1.480;2022-10-30T02:30:54;18.77;;;4.17;;
21258;SDS011;10787;53.364;-1.480;2022-10-30T02:33:20;18.40;;;3.70;;
21258;SDS011;10787;53.364;-1.480;2022-10-30T02:35:48;18.37;;;4.03;;
21258;SDS011;10787;53.364;-1.480;2022-10-30T02:38:18;23.17;;;4.83;;
21258;SDS011;10787;53.364;-1.480;2022-10-30T02:40:44;16.30;;;3.83;;
21258;SDS011;10787;53.364;-1.480;2022-10-30T02:43:10;16.07;;;3.97;;
21258;SDS011;10787;53.364;-1.480;2022-10-30T02:45:36;25.07;;;4.30;;
21258;SDS011;10787;53.364;-1.480;2022-10-30T02:48:01;21.10;;;4.37;;
21258;SDS011;10787;53.364;-1.480;2022-10-30T02:50:27;16.47;;;4.03;;
21258;SDS011;10787;53.364;-1.480;2022-10-30T02:52:53;22.33;;;4.40;;
21258;SDS011;10787;53.364;-1.480;2022-10-30T02:55:19;24.47;;;4.43;;
21258;SDS011;10787;53.364;-1.480;2022-10-30T02:57:44;21.73;;;4.00;;
21258;SDS011;10787;53.364;-1.480;2022-10-30T03:00:10;14.30;;;3.50;;
21258;SDS011;10787;53.364;-1.480;2022-10-30T03:02:37;14.33;;;3.93;;
21258;SDS011;10787;53.364;-1.480;2022-10-30T03:05:02;17.17;;;3.93;;
21258;SDS011;10787;53.364;-1.480;2022-10-30T03:07:28;19.93;;;4.00;;
21258;SDS011;10787;53.364;-1.480;2022-10-30T03:09:54;17.47;;;3.83;;
21258;SDS011;10787;53.364;-1.480;2022-10-30T03:12:20;20.13;;;4.03;;
21258;SDS011;10787;53.364;-1.480;2022-10-30T03:14:46;18.67;;;3.70;;
21258;SDS011;10787;53.364;-1.480;2022-10-30T03:17:12;20.20;;;4.27;;
21258;SDS011;10787;53.364;-1.480;2022-10-30T03:19:38;21.80;;;4.30;;
21258;SDS011;10787;53.364;-1.480;2022-10-30T03:22:05;18.47;;;3.83;;
21258;SDS011;10787;53.364;-1.480;2022-10-30T03:24:31;18.10;;;3.73;;
21258;SDS011;10787;53.364;-1.480;2022-10-30T03:26:57;18.53;;;4.07;;
21258;SDS011;10787;53.364;-1.480;2022-10-30T03:29:23;22.20;;;4.13;;
21258;SDS011;10787;53.364;-1.480;2022-10-30T03:31:49;18.67;;;3.70;;
21258;SDS011;10787;53.364;-1.480;2022-10-30T03:34:14;19.27;;;3.50;;
21258;SDS011;10787;53.364;-1.480;2022-10-30T03:36:41;14.93;;;3.43;;
21258;SDS011;10787;53.364;-1.480;2022-10-30T03:39:07;17.60;;;3.65;;
21258;SDS011;10787;53.364;-1.480;2022-10-30T03:41:33;19.53;;;3.90;;
21258;SDS011;10787;53.364;-1.480;2022-10-30T03:43:58;16.97;;;3.80;;
21258;SDS011;10787;53.364;-1.480;2022-10-30T03:46:25;20.25;;;3.85;;
21258;SDS011;10787;53.364;-1.480;2022-10-30T03:48:51;18.20;;;3.72;;
21258;SDS011;10787;53.364;-1.480;2022-10-30T03:51:18;19.77;;;4.27;;
21258;SDS011;10787;53.364;-1.480;2022-10-30T03:53:43;19.38;;;4.00;;
21258;SDS011;10787;53.364;-1.480;2022-10-30T03:56:09;16.88;;;3.60;;
21258;SDS011;10787;53.364;-1.480;2022-10-30T03:58:35;15.48;;;3.83;;
21258;SDS011;10787;53.364;-1.480;2022-10-30T04:01:01;18.88;;;3.92;;
21258;SDS011;10787;53.364;-1.480;2022-10-30T04:03:29;16.08;;;3.70;;
21258;SDS011;10787;53.364;-1.480;2022-10-30T04:05:56;18.85;;;3.78;;
21258;SDS011;10787;53.364;-1.480;2022-10-30T04:08:22;20.23;;;4.40;;
21258;SDS011;10787;53.364;-1.480;2022-10-30T04:10:48;17.23;;;3.70;;
21258;SDS011;10787;53.364;-1.480;2022-10-30T04:13:15;18.73;;;3.90;;
21258;SDS011;10787;53.364;-1.480;2022-10-30T04:15:42;18.00;;;3.93;;
21258;SDS011;10787;53.364;-1.480;2022-10-30T04:18:09;18.08;;;3.88;;
21258;SDS011;10787;53.364;-1.480;2022-10-30T04:20:36;16.15;;;3.92;;
21258;SDS011;10787;53.364;-1.480;2022-10-30T04:23:02;18.27;;;3.75;;
21258;SDS011;10787;53.364;-1.480;2022-10-30T04:25:30;19.55;;;4.10;;
21258;SDS011;10787;53.364;-1.480;2022-10-30T04:27:57;18.23;;;3.42;;
21258;SDS011;10787;53.364;-1.480;2022-10-30T04:30:24;15.30;;;3.30;;
21258;SDS011;10787;53.364;-1.480;2022-10-30T04:32:54;20.67;;;3.90;;
21258;SDS011;10787;53.364;-1.480;2022-10-30T04:35:22;15.15;;;3.70;;
21258;SDS011;10787;53.364;-1.480;2022-10-30T04:37:52;16.50;;;4.10;;
21258;SDS011;10787;53.364;-1.480;2022-10-30T04:40:19;16.02;;;3.83;;
21258;SDS011;10787;53.364;-1.480;2022-10-30T04:42:46;15.02;;;3.72;;
21258;SDS011;10787;53.364;-1.480;2022-10-30T04:45:12;15.23;;;3.70;;
21258;SDS011;10787;53.364;-1.480;2022-10-30T04:47:38;20.17;;;4.23;;
21258;SDS011;10787;53.364;-1.480;2022-10-30T04:50:04;18.03;;;3.60;;
21258;SDS011;10787;53.364;-1.480;2022-10-30T04:52:30;17.47;;;3.70;;
21258;SDS011;10787;53.364;-1.480;2022-10-30T04:54:57;15.18;;;3.70;;
21258;SDS011;10787;53.364;-1.480;2022-10-30T04:57:23;18.65;;;4.00;;
21258;SDS011;10787;53.364;-1.480;2022-10-30T04:59:49;18.10;;;4.00;;
21258;SDS011;10787;53.364;-1.480;2022-10-30T05:02:15;19.60;;;3.85;;
21258;SDS011;10787;53.364;-1.480;2022-10-30T05:04:43;18.83;;;3.42;;
21258;SDS011;10787;53.364;-1.480;2022-10-30T05:07:10;19.70;;;3.90;;
21258;SDS011;10787;53.364;-1.480;2022-10-30T05:09:37;18.73;;;3.70;;
21258;SDS011;10787;53.364;-1.480;2022-10-30T05:12:03;14.80;;;3.35;;
21258;SDS011;10787;53.364;-1.480;2022-10-30T05:14:29;14.90;;;3.35;;
21258;SDS011;10787;53.364;-1.480;2022-10-30T05:16:55;14.55;;;3.20;;
21258;SDS011;10787;53.364;-1.480;2022-10-30T05:19:22;16.23;;;3.80;;
21258;SDS011;10787;53.364;-1.480;2022-10-30T05:21:48;11.50;;;3.53;;
21258;SDS011;10787;53.364;-1.480;2022-10-30T05:24:14;12.20;;;3.33;;
21258;SDS011;10787;53.364;-1.480;2022-10-30T05:26:40;11.60;;;2.92;;
21258;SDS011;10787;53.364;-1.480;2022-10-30T05:29:06;15.40;;;3.30;;
21258;SDS011;10787;53.364;-1.480;2022-10-30T05:31:32;17.48;;;3.63;;
21258;SDS011;10787;53.364;-1.480;2022-10-30T05:33:58;16.33;;;3.80;;
21258;SDS011;10787;53.364;-1.480;2022-10-30T05:36:24;17.35;;;3.50;;
21258;SDS011;10787;53.364;-1.480;2022-10-30T05:38:50;14.40;;;3.15;;
21258;SDS011;10787;53.364;-1.480;2022-10-30T05:41:16;18.05;;;3.35;;
21258;SDS011;10787;53.364;-1.480;2022-10-30T05:43:42;18.40;;;3.63;;
21258;SDS011;10787;53.364;-1.480;2022-10-30T05:46:08;16.88;;;3.72;;
21258;SDS011;10787;53.364;-1.480;2022-10-30T05:48:34;14.13;;;3.13;;
21258;SDS011;10787;53.364;-1.480;2022-10-30T05:50:59;14.40;;;3.30;;
21258;SDS011;10787;53.364;-1.480;2022-10-30T05:53:25;14.10;;;3.45;;
21258;SDS011;10787;53.364;-1.480;2022-10-30T05:55:55;14.77;;;3.35;;
21258;SDS011;10787;53.364;-1.480;2022-10-30T05:58:22;15.95;;;3.05;;
21258;SDS011;10787;53.364;-1.480;2022-10-30T06:00:48;15.75;;;3.17;;
21258;SDS011;10787;53.364;-1.480;2022-10-30T06:03:14;13.75;;;3.13;;
21258;SDS011;10787;53.364;-1.480;2022-10-30T06:05:40;15.50;;;3.45;;
21258;SDS011;10787;53.364;-1.480;2022-10-30T06:08:09;13.60;;;3.47;;
21258;SDS011;10787;53.364;-1.480;2022-10-30T06:10:35;15.07;;;3.73;;
21258;SDS011;10787;53.364;-1.480;2022-10-30T06:13:02;15.60;;;3.57;;
21258;SDS011;10787;53.364;-1.480;2022-10-30T06:15:30;10.87;;;3.30;;
21258;SDS011;10787;53.364;-1.480;2022-10-30T06:17:56;12.55;;;3.80;;
21258;SDS011;10787;53.364;-1.480;2022-10-30T06:20:24;13.43;;;3.28;;
21258;SDS011;10787;53.364;-1.480;2022-10-30T06:23:01;12.23;;;3.25;;
21258;SDS011;10787;53.364;-1.480;2022-10-30T06:25:30;15.70;;;3.80;;
21258;SDS011;10787;53.364;-1.480;2022-10-30T06:27:57;12.68;;;3.58;;
21258;SDS011;10787;53.364;-1.480;2022-10-30T06:30:23;13.40;;;3.47;;
21258;SDS011;10787;53.364;-1.480;2022-10-30T06:32:57;13.18;;;3.35;;
21258;SDS011;10787;53.364;-1.480;2022-10-30T06:35:23;14.45;;;3.40;;
21258;SDS011;10787;53.364;-1.480;2022-10-30T06:37:49;18.73;;;3.40;;
21258;SDS011;10787;53.364;-1.480;2022-10-30T06:40:17;16.60;;;3.72;;
21258;SDS011;10787;53.364;-1.480;2022-10-30T06:42:44;14.30;;;3.47;;
21258;SDS011;10787;53.364;-1.480;2022-10-30T06:45:11;12.82;;;3.05;;
21258;SDS011;10787;53.364;-1.480;2022-10-30T06:47:37;15.82;;;3.40;;
21258;SDS011;10787;53.364;-1.480;2022-10-30T06:50:04;14.60;;;3.10;;
21258;SDS011;10787;53.364;-1.480;2022-10-30T06:52:32;14.23;;;3.30;;
21258;SDS011;10787;53.364;-1.480;2022-10-30T06:54:58;15.73;;;3.20;;
21258;SDS011;10787;53.364;-1.480;2022-10-30T06:57:24;15.30;;;3.20;;
21258;SDS011;10787;53.364;-1.480;2022-10-30T06:59:50;19.45;;;4.10;;
21258;SDS011;10787;53.364;-1.480;2022-10-30T07:02:16;15.15;;;2.88;;
21258;SDS011;10787;53.364;-1.480;2022-10-30T07:04:42;16.48;;;3.60;;
21258;SDS011;10787;53.364;-1.480;2022-10-30T07:07:10;19.02;;;3.60;;
21258;SDS011;10787;53.364;-1.480;2022-10-30T07:09:39;14.05;;;3.33;;
21258;SDS011;10787;53.364;-1.480;2022-10-30T07:12:05;19.85;;;3.92;;
21258;SDS011;10787;53.364;-1.480;2022-10-30T07:14:32;18.38;;;4.00;;
21258;SDS011;10787;53.364;-1.480;2022-10-30T07:16:58;13.45;;;3.40;;
21258;SDS011;10787;53.364;-1.480;2022-10-30T07:19:24;14.38;;;3.80;;
21258;SDS011;10787;53.364;-1.480;2022-10-30T07:21:50;13.73;;;3.42;;
21258;SDS011;10787;53.364;-1.480;2022-10-30T07:24:16;23.58;;;4.18;;
21258;SDS011;10787;53.364;-1.480;2022-10-30T07:26:44;21.17;;;3.45;;
21258;SDS011;10787;53.364;-1.480;2022-10-30T07:29:09;19.08;;;3.63;;
21258;SDS011;10787;53.364;-1.480;2022-10-30T07:31:36;15.38;;;3.20;;
21258;SDS011;10787;53.364;-1.480;2022-10-30T07:34:02;17.02;;;3.88;;
21258;SDS011;10787;53.364;-1.480;2022-10-30T07:36:28;13.38;;;3.50;;
21258;SDS011;10787;53.364;-1.480;2022-10-30T07:38:54;15.93;;;3.23;;
21258;SDS011;10787;53.364;-1.480;2022-10-30T07:41:20;14.38;;;3.33;;
21258;SDS011;10787;53.364;-1.480;2022-10-30T07:43:46;15.85;;;3.75;;
21258;SDS011;10787;53.364;-1.480;2022-10-30T07:46:12;14.75;;;3.20;;
21258;SDS011;10787;53.364;-1.480;2022-10-30T07:48:38;18.27;;;4.00;;
21258;SDS011;10787;53.364;-1.480;2022-10-30T07:51:04;19.58;;;3.70;;
21258;SDS011;10787;53.364;-1.480;2022-10-30T07:53:30;12.55;;;3.35;;
21258;SDS011;10787;53.364;-1.480;2022-10-30T07:55:56;16.25;;;3.40;;
21258;SDS011;10787;53.364;-1.480;2022-10-30T07:58:22;14.98;;;3.13;;
21258;SDS011;10787;53.364;-1.480;2022-10-30T08:00:51;15.07;;;3.10;;
21258;SDS011;10787;53.364;-1.480;2022-10-30T08:03:16;16.97;;;3.63;;
21258;SDS011;10787;53.364;-1.480;2022-10-30T08:05:42;14.07;;;2.95;;
21258;SDS011;10787;53.364;-1.480;2022-10-30T08:08:08;15.18;;;3.03;;
21258;SDS011;10787;53.364;-1.480;2022-10-30T08:10:34;14.57;;;3.15;;
21258;SDS011;10787;53.364;-1.480;2022-10-30T08:13:01;13.95;;;2.97;;
21258;SDS011;10787;53.364;-1.480;2022-10-30T08:15:27;13.70;;;3.20;;
21258;SDS011;10787;53.364;-1.480;2022-10-30T08:17:53;15.07;;;2.80;;
21258;SDS011;10787;53.364;-1.480;2022-10-30T08:20:20;14.55;;;3.20;;
21258;SDS011;10787;53.364;-1.480;2022-10-30T08:22:48;17.63;;;3.30;;
21258;SDS011;10787;53.364;-1.480;2022-10-30T08:25:19;12.57;;;2.88;;
21258;SDS011;10787;53.364;-1.480;2022-10-30T08:30:25;19.48;;;2.97;;
21258;SDS011;10787;53.364;-1.480;2022-10-30T08:32:58;16.02;;;3.30;;
21258;SDS011;10787;53.364;-1.480;2022-10-30T08:35:25;20.45;;;3.40;;
21258;SDS011;10787;53.364;-1.480;2022-10-30T08:37:55;14.60;;;3.30;;
21258;SDS011;10787;53.364;-1.480;2022-10-30T08:40:21;15.77;;;3.10;;
21258;SDS011;10787;53.364;-1.480;2022-10-30T08:42:54;20.15;;;3.78;;
21258;SDS011;10787;53.364;-1.480;2022-10-30T08:45:22;16.15;;;3.20;;
21258;SDS011;10787;53.364;-1.480;2022-10-30T08:47:58;15.70;;;3.47;;
21258;SDS011;10787;53.364;-1.480;2022-10-30T08:50:25;21.30;;;3.65;;
21258;SDS011;10787;53.364;-1.480;2022-10-30T08:52:52;14.10;;;3.50;;
21258;SDS011;10787;53.364;-1.480;2022-10-30T08:55:17;17.83;;;3.45;;
21258;SDS011;10787;53.364;-1.480;2022-10-30T08:57:43;14.97;;;3.23;;
21258;SDS011;10787;53.364;-1.480;2022-10-30T09:00:10;17.38;;;3.22;;
21258;SDS011;10787;53.364;-1.480;2022-10-30T09:02:36;16.48;;;3.38;;
21258;SDS011;10787;53.364;-1.480;2022-10-30T09:05:08;17.17;;;3.47;;
21258;SDS011;10787;53.364;-1.480;2022-10-30T09:07:34;10.85;;;2.50;;
21258;SDS011;10787;53.364;-1.480;2022-10-30T09:10:00;19.83;;;3.47;;
21258;SDS011;10787;53.364;-1.480;2022-10-30T09:12:26;15.23;;;3.13;;
21258;SDS011;10787;53.364;-1.480;2022-10-30T09:14:51;14.15;;;2.97;;
21258;SDS011;10787;53.364;-1.480;2022-10-30T09:17:17;13.55;;;3.05;;
21258;SDS011;10787;53.364;-1.480;2022-10-30T09:19:43;14.15;;;3.28;;
21258;SDS011;10787;53.364;-1.480;2022-10-30T09:22:09;11.77;;;3.28;;
21258;SDS011;10787;53.364;-1.480;2022-10-30T09:24:35;12.82;;;3.08;;
21258;SDS011;10787;53.364;-1.480;2022-10-30T09:27:03;14.55;;;3.47;;
21258;SDS011;10787;53.364;-1.480;2022-10-30T09:29:29;14.80;;;3.67;;
21258;SDS011;10787;53.364;-1.480;2022-10-30T09:31:56;12.70;;;3.25;;
21258;SDS011;10787;53.364;-1.480;2022-10-30T09:34:24;15.73;;;2.97;;
21258;SDS011;10787;53.364;-1.480;2022-10-30T09:36:51;14.98;;;3.30;;
21258;SDS011;10787;53.364;-1.480;2022-10-30T09:39:17;17.92;;;3.65;;
21258;SDS011;10787;53.364;-1.480;2022-10-30T09:55:23;14.20;;;3.08;;
21258;SDS011;10787;53.364;-1.480;2022-10-30T10:00:43;15.27;;;3.63;;
21258;SDS011;10787;53.364;-1.480;2022-10-30T10:06:17;15.60;;;3.28;;
21258;SDS011;10787;53.364;-1.480;2022-10-30T10:08:50;13.98;;;3.05;;
21258;SDS011;10787;53.364;-1.480;2022-10-30T10:11:26;15.38;;;3.53;;
21258;SDS011;10787;53.364;-1.480;2022-10-30T10:14:01;11.73;;;3.40;;
21258;SDS011;10787;53.364;-1.480;2022-10-30T10:16:37;16.50;;;3.15;;
21258;SDS011;10787;53.364;-1.480;2022-10-30T10:19:09;18.35;;;4.22;;
21258;SDS011;10787;53.364;-1.480;2022-10-30T10:21:58;15.90;;;3.45;;
21258;SDS011;10787;53.364;-1.480;2022-10-30T10:24:35;15.10;;;3.40;;
21258;SDS011;10787;53.364;-1.480;2022-10-30T10:30:02;13.90;;;3.25;;
21258;SDS011;10787;53.364;-1.480;2022-10-30T10:45:48;15.95;;;3.20;;
21258;SDS011;10787;53.364;-1.480;2022-10-30T10:49:04;19.02;;;3.35;;
21258;SDS011;10787;53.364;-1.480;2022-10-30T10:51:43;14.93;;;2.97;;
21258;SDS011;10787;53.364;-1.480;2022-10-30T10:54:24;24.65;;;4.15;;
21258;SDS011;10787;53.364;-1.480;2022-10-30T10:56:54;27.33;;;3.90;;
21258;SDS011;10787;53.364;-1.480;2022-10-30T10:59:33;20.70;;;3.60;;
21258;SDS011;10787;53.364;-1.480;2022-10-30T11:04:48;15.93;;;3.13;;
21258;SDS011;10787;53.364;-1.480;2022-10-30T11:07:20;16.25;;;2.97;;
21258;SDS011;10787;53.364;-1.480;2022-10-30T11:09:52;13.75;;;3.20;;
21258;SDS011;10787;53.364;-1.480;2022-10-30T11:12:20;25.15;;;3.72;;
21258;SDS011;10787;53.364;-1.480;2022-10-30T11:14:51;13.98;;;3.28;;
21258;SDS011;10787;53.364;-1.480;2022-10-30T11:17:28;19.50;;;3.75;;
21258;SDS011;10787;53.364;-1.480;2022-10-30T11:20:28;19.05;;;3.30;;
21258;SDS011;10787;53.364;-1.480;2022-10-30T11:23:01;11.48;;;3.10;;
21258;SDS011;10787;53.364;-1.480;2022-10-30T11:25:32;16.48;;;3.05;;
21258;SDS011;10787;53.364;-1.480;2022-10-30T11:28:00;16.60;;;2.70;;
21258;SDS011;10787;53.364;-1.480;2022-10-30T11:30:28;10.07;;;2.53;;
21258;SDS011;10787;53.364;-1.480;2022-10-30T11:32:55;12.48;;;2.78;;
21258;SDS011;10787;53.364;-1.480;2022-10-30T11:35:22;10.02;;;2.70;;
21258;SDS011;10787;53.364;-1.480;2022-10-30T11:40:46;18.38;;;2.97;;
21258;SDS011;10787;53.364;-1.480;2022-10-30T11:43:17;19.08;;;3.13;;
21258;SDS011;10787;53.364;-1.480;2022-10-30T11:45:48;13.38;;;2.70;;
21258;SDS011;10787;53.364;-1.480;2022-10-30T11:48:28;15.48;;;3.17;;
21258;SDS011;10787;53.364;-1.480;2022-10-30T11:50:57;12.52;;;3.08;;
21258;SDS011;10787;53.364;-1.480;2022-10-30T11:53:26;15.70;;;3.15;;
21258;SDS011;10787;53.364;-1.480;2022-10-30T11:55:59;19.50;;;3.35;;
21258;SDS011;10787;53.364;-1.480;2022-10-30T11:58:29;13.25;;;3.60;;
21258;SDS011;10787;53.364;-1.480;2022-10-30T12:00:59;11.57;;;2.70;;
21258;SDS011;10787;53.364;-1.480;2022-10-30T12:03:34;15.13;;;2.80;;
21258;SDS011;10787;53.364;-1.480;2022-10-30T12:06:35;12.50;;;3.10;;
21258;SDS011;10787;53.364;-1.480;2022-10-30T12:09:08;14.95;;;2.95;;
21258;SDS011;10787;53.364;-1.480;2022-10-30T12:11:40;13.20;;;3.10;;
21258;SDS011;10787;53.364;-1.480;2022-10-30T12:14:12;13.32;;;3.10;;
21258;SDS011;10787;53.364;-1.480;2022-10-30T12:16:54;13.40;;;2.58;;
21258;SDS011;10787;53.364;-1.480;2022-10-30T12:19:21;13.70;;;2.75;;
21258;SDS011;10787;53.364;-1.480;2022-10-30T12:21:49;13.35;;;2.78;;
21258;SDS011;10787;53.364;-1.480;2022-10-30T12:27:02;12.25;;;2.88;;
21258;SDS011;10787;53.364;-1.480;2022-10-30T12:29:37;13.98;;;2.67;;
21258;SDS011;10787;53.364;-1.480;2022-10-30T12:32:22;17.40;;;2.78;;
21258;SDS011;10787;53.364;-1.480;2022-10-30T12:35:03;9.68;;;2.53;;
21258;SDS011;10787;53.364;-1.480;2022-10-30T12:37:40;10.90;;;2.97;;
21258;SDS011;10787;53.364;-1.480;2022-10-30T12:40:15;15.10;;;2.90;;
21258;SDS011;10787;53.364;-1.480;2022-10-30T12:43:02;12.15;;;2.60;;
21258;SDS011;10787;53.364;-1.480;2022-10-30T12:45:31;14.43;;;2.70;;
21258;SDS011;10787;53.364;-1.480;2022-10-30T12:48:04;13.82;;;2.90;;
21258;SDS011;10787;53.364;-1.480;2022-10-30T12:53:53;9.13;;;2.45;;
21258;SDS011;10787;53.364;-1.480;2022-10-30T12:56:28;12.70;;;2.78;;
21258;SDS011;10787;53.364;-1.480;2022-10-30T13:01:54;9.02;;;2.13;;
21258;SDS011;10787;53.364;-1.480;2022-10-30T13:04:21;19.33;;;5.63;;
21258;SDS011;10787;53.364;-1.480;2022-10-30T13:07:04;9.40;;;2.28;;
21258;SDS011;10787;53.364;-1.480;2022-10-30T13:12:47;10.02;;;2.72;;
21258;SDS011;10787;53.364;-1.480;2022-10-30T13:18:09;9.65;;;2.22;;
21258;SDS011;10787;53.364;-1.480;2022-10-30T13:20:39;14.43;;;2.47;;
21258;SDS011;10787;53.364;-1.480;2022-10-30T13:23:14;9.95;;;2.40;;
21258;SDS011;10787;53.364;-1.480;2022-10-30T13:26:06;13.75;;;2.30;;
21258;SDS011;10787;53.364;-1.480;2022-10-30T13:28:42;12.20;;;1.50;;
21258;SDS011;10787;53.364;-1.480;2022-10-30T13:31:28;5.13;;;1.10;;
21258;SDS011;10787;53.364;-1.480;2022-10-30T13:34:42;12.55;;;1.30;;
21258;SDS011;10787;53.364;-1.480;2022-10-30T13:45:03;5.50;;;1.43;;
21258;SDS011;10787;53.364;-1.480;2022-10-30T13:53:03;6.50;;;1.70;;
21258;SDS011;10787;53.364;-1.480;2022-10-30T13:55:35;8.93;;;1.60;;
21258;SDS011;10787;53.364;-1.480;2022-10-30T14:08:42;6.93;;;2.10;;
21258;SDS011;10787;53.364;-1.480;2022-10-30T14:11:33;6.83;;;1.93;;
21258;SDS011;10787;53.364;-1.480;2022-10-30T14:14:23;4.63;;;1.77;;
21258;SDS011;10787;53.364;-1.480;2022-10-30T14:22:30;5.37;;;1.70;;
21258;SDS011;10787;53.364;-1.480;2022-10-30T14:24:57;5.63;;;2.27;;
21258;SDS011;10787;53.364;-1.480;2022-10-30T14:27:30;7.03;;;2.33;;
21258;SDS011;10787;53.364;-1.480;2022-10-30T14:29:58;3.77;;;1.80;;
21258;SDS011;10787;53.364;-1.480;2022-10-30T14:37:17;4.33;;;1.43;;
21258;SDS011;10787;53.364;-1.480;2022-10-30T14:39:53;3.13;;;1.40;;
21258;SDS011;10787;53.364;-1.480;2022-10-30T14:42:40;3.10;;;1.10;;
21258;SDS011;10787;53.364;-1.480;2022-10-30T14:45:21;2.55;;;1.33;;
21258;SDS011;10787;53.364;-1.480;2022-10-30T14:56:10;2.95;;;1.25;;
21258;SDS011;10787;53.364;-1.480;2022-10-30T15:07:04;3.05;;;1.30;;
21258;SDS011;10787;53.364;-1.480;2022-10-30T15:12:31;4.38;;;1.00;;
21258;SDS011;10787;53.364;-1.480;2022-10-30T15:15:19;1.65;;;0.85;;
21258;SDS011;10787;53.364;-1.480;2022-10-30T15:17:46;2.65;;;0.95;;
21258;SDS011;10787;53.364;-1.480;2022-10-30T15:20:25;1.52;;;0.90;;
21258;SDS011;10787;53.364;-1.480;2022-10-30T15:22:54;3.38;;;0.93;;
21258;SDS011;10787;53.364;-1.480;2022-10-30T15:25:24;4.80;;;1.10;;
21258;SDS011;10787;53.364;-1.480;2022-10-30T15:27:56;3.30;;;1.45;;
21258;SDS011;10787;53.364;-1.480;2022-10-30T15:30:23;3.95;;;2.40;;
21258;SDS011;10787;53.364;-1.480;2022-10-30T15:32:50;3.95;;;2.28;;
21258;SDS011;10787;53.364;-1.480;2022-10-30T15:35:18;4.95;;;2.60;;
21258;SDS011;10787;53.364;-1.480;2022-10-30T15:38:01;4.57;;;2.00;;
21258;SDS011;10787;53.364;-1.480;2022-10-30T15:40:33;3.83;;;1.23;;
21258;SDS011;10787;53.364;-1.480;2022-10-30T15:43:01;3.78;;;1.48;;
21258;SDS011;10787;53.364;-1.480;2022-10-30T15:45:33;3.00;;;1.48;;
21258;SDS011;10787;53.364;-1.480;2022-10-30T15:50:40;4.53;;;2.47;;
21258;SDS011;10787;53.364;-1.480;2022-10-30T15:53:19;3.00;;;1.35;;
21258;SDS011;10787;53.364;-1.480;2022-10-30T15:55:48;3.28;;;0.98;;
21258;SDS011;10787;53.364;-1.480;2022-10-30T15:58:16;2.13;;;1.17;;
21258;SDS011;10787;53.364;-1.480;2022-10-30T16:00:55;5.07;;;1.45;;
21258;SDS011;10787;53.364;-1.480;2022-10-30T16:03:23;3.92;;;1.52;;
21258;SDS011;10787;53.364;-1.480;2022-10-30T16:05:49;2.28;;;1.30;;
21258;SDS011;10787;53.364;-1.480;2022-10-30T16:08:18;5.82;;;1.50;;
21258;SDS011;10787;53.364;-1.480;2022-10-30T16:10:46;6.03;;;1.40;;
21258;SDS011;10787;53.364;-1.480;2022-10-30T16:13:18;5.32;;;1.38;;
21258;SDS011;10787;53.364;-1.480;2022-10-30T16:15:47;3.35;;;1.40;;
21258;SDS011;10787;53.364;-1.480;2022-10-30T16:18:47;2.33;;;1.17;;
21258;SDS011;10787;53.364;-1.480;2022-10-30T16:21:07;3.13;;;1.50;;
21258;SDS011;10787;53.364;-1.480;2022-10-30T16:23:39;4.93;;;1.70;;
21258;SDS011;10787;53.364;-1.480;2022-10-30T16:26:27;2.93;;;1.40;;
21258;SDS011;10787;53.364;-1.480;2022-10-30T16:29:01;3.33;;;1.90;;
21258;SDS011;10787;53.364;-1.480;2022-10-30T16:31:38;2.83;;;1.30;;
21258;SDS011;10787;53.364;-1.480;2022-10-30T16:34:10;4.27;;;1.60;;
21258;SDS011;10787;53.364;-1.480;2022-10-30T16:36:42;5.07;;;1.40;;
21258;SDS011;10787;53.364;-1.480;2022-10-30T16:39:11;3.40;;;1.50;;
21258;SDS011;10787;53.364;-1.480;2022-10-30T16:41:41;4.33;;;1.50;;
21258;SDS011;10787;53.364;-1.480;2022-10-30T16:46:37;3.57;;;1.67;;
21258;SDS011;10787;53.364;-1.480;2022-10-30T16:49:06;3.37;;;1.63;;
21258;SDS011;10787;53.364;-1.480;2022-10-30T16:51:40;4.50;;;1.60;;
21258;SDS011;10787;53.364;-1.480;2022-10-30T16:57:10;4.23;;;1.57;;
21258;SDS011;10787;53.364;-1.480;2022-10-30T16:59:51;6.50;;;1.70;;
21258;SDS011;10787;53.364;-1.480;2022-10-30T17:02:21;4.87;;;1.57;;
21258;SDS011;10787;53.364;-1.480;2022-10-30T17:04:51;5.60;;;1.70;;